sensor_id;sensor_type;location;lat;lon;timestamp;pressure;altitude;pressure_sealevel;temperature;humidity
39295;BME280;52361;52.100;5.248;2023-05-23T00:00:59;101855.0;;;17.39;100.0
39295;BME280;52361;52.100;5.248;2023-05-23T00:04:11;101857.0;;;17.57;100.0
39295;BME280;52361;52.100;5.248;2023-05-23T00:05:47;101859.0;;;17.27;100.0
39295;BME280;52361;52.100;5.248;2023-05-23T00:07:24;101858.0;;;17.45;100.0
39295;BME280;52361;52.100;5.248;2023-05-23T00:10:37;101859.0;;;17.29;100.0
39295;BME280;52361;52.100;5.248;2023-05-23T00:12:13;101857.0;;;17.25;100.0
39295;BME280;52361;52.100;5.248;2023-05-23T00:13:49;101862.0;;;17.46;100.0
39295;BME280;52361;52.100;5.248;2023-05-23T00:17:02;101865.0;;;17.3;100.0
39295;BME280;52361;52.100;5.248;2023-05-23T00:18:40;101865.0;;;17.12;100.0
39295;BME280;52361;52.100;5.248;2023-05-23T00:20:17;101864.0;;;17.22;100.0
39295;BME280;52361;52.100;5.248;2023-05-23T00:21:53;101860.0;;;17.11;100.0
39295;BME280;52361;52.100;5.248;2023-05-23T00:25:07;101866.0;;;17.28;100.0
39295;BME280;52361;52.100;5.248;2023-05-23T00:26:43;101855.0;;;17.04;100.0
39295;BME280;52361;52.100;5.248;2023-05-23T00:28:19;101868.0;;;17.05;100.0
39295;BME280;52361;52.100;5.248;2023-05-23T00:31:32;101869.0;;;17.16;100.0
39295;BME280;52361;52.100;5.248;2023-05-23T00:33:08;101868.0;;;17.25;100.0
39295;BME280;52361;52.100;5.248;2023-05-23T00:34:44;101868.0;;;16.66;100.0
39295;BME280;52361;52.100;5.248;2023-05-23T00:37:56;101873.0;;;17.02;100.0
39295;BME280;52361;52.100;5.248;2023-05-23T00:39:32;101875.0;;;16.75;100.0
39295;BME280;52361;52.100;5.248;2023-05-23T00:41:09;101877.0;;;16.95;100.0
39295;BME280;52361;52.100;5.248;2023-05-23T00:42:46;101875.0;;;16.87;100.0
39295;BME280;52361;52.100;5.248;2023-05-23T00:45:59;101870.0;;;16.82;100.0
39295;BME280;52361;52.100;5.248;2023-05-23T00:47:35;101873.0;;;16.84;100.0
39295;BME280;52361;52.100;5.248;2023-05-23T00:49:12;101877.0;;;16.7;100.0
39295;BME280;52361;52.100;5.248;2023-05-23T00:52:25;101886.0;;;16.47;100.0
39295;BME280;52361;52.100;5.248;2023-05-23T00:54:03;101874.0;;;16.57;100.0
39295;BME280;52361;52.100;5.248;2023-05-23T00:55:39;101874.0;;;16.71;100.0
39295;BME280;52361;52.100;5.248;2023-05-23T00:58:53;101885.0;;;16.77;100.0
39295;BME280;52361;52.100;5.248;2023-05-23T01:00:29;101882.0;;;16.7;100.0
39295;BME280;52361;52.100;5.248;2023-05-23T01:02:05;101880.0;;;16.57;100.0
39295;BME280;52361;52.100;5.248;2023-05-23T01:03:41;101882.0;;;16.64;100.0
39295;BME280;52361;52.100;5.248;2023-05-23T01:06:56;101884.0;;;16.55;100.0
39295;BME280;52361;52.100;5.248;2023-05-23T01:08:32;101888.0;;;16.77;100.0
39295;BME280;52361;52.100;5.248;2023-05-23T01:10:09;101888.0;;;16.63;100.0
39295;BME280;52361;52.100;5.248;2023-05-23T01:13:39;101886.0;;;16.64;100.0
39295;BME280;52361;52.100;5.248;2023-05-23T01:15:19;101885.0;;;16.7;100.0
39295;BME280;52361;52.100;5.248;2023-05-23T01:17:02;101882.0;;;16.63;100.0
39295;BME280;52361;52.100;5.248;2023-05-23T01:18:47;101885.0;;;16.73;100.0
39295;BME280;52361;52.100;5.248;2023-05-23T01:20:29;101884.0;;;16.7;100.0
39295;BME280;52361;52.100;5.248;2023-05-23T01:24:41;101888.0;;;16.52;100.0
39295;BME280;52361;52.100;5.248;2023-05-23T01:26:31;101881.0;;;16.48;100.0
39295;BME280;52361;52.100;5.248;2023-05-23T01:28:15;101884.0;;;16.45;100.0
39295;BME280;52361;52.100;5.248;2023-05-23T01:29:56;101882.0;;;16.57;100.0
39295;BME280;52361;52.100;5.248;2023-05-23T01:31:35;101886.0;;;16.59;100.0
39295;BME280;52361;52.100;5.248;2023-05-23T01:33:13;101882.0;;;16.68;100.0
39295;BME280;52361;52.100;5.248;2023-05-23T01:36:28;101884.0;;;16.52;100.0
39295;BME280;52361;52.100;5.248;2023-05-23T01:38:04;101881.0;;;16.54;100.0
39295;BME280;52361;52.100;5.248;2023-05-23T01:39:41;101885.0;;;16.46;100.0
39295;BME280;52361;52.100;5.248;2023-05-23T01:41:16;101888.0;;;16.65;100.0
39295;BME280;52361;52.100;5.248;2023-05-23T01:44:31;101893.0;;;16.72;100.0
39295;BME280;52361;52.100;5.248;2023-05-23T01:46:09;101890.0;;;16.66;100.0
39295;BME280;52361;52.100;5.248;2023-05-23T01:47:48;101891.0;;;16.53;100.0
39295;BME280;52361;52.100;5.248;2023-05-23T01:51:03;101895.0;;;16.28;100.0
39295;BME280;52361;52.100;5.248;2023-05-23T01:52:40;101896.0;;;16.4;100.0
39295;BME280;52361;52.100;5.248;2023-05-23T01:54:16;101893.0;;;16.36;100.0
39295;BME280;52361;52.100;5.248;2023-05-23T01:55:53;101895.0;;;16.36;100.0
39295;BME280;52361;52.100;5.248;2023-05-23T01:59:08;101897.0;;;16.36;100.0
39295;BME280;52361;52.100;5.248;2023-05-23T02:00:45;101897.0;;;16.14;100.0
39295;BME280;52361;52.100;5.248;2023-05-23T02:02:21;101901.0;;;16.4;100.0
39295;BME280;52361;52.100;5.248;2023-05-23T02:05:33;101898.0;;;16.45;100.0
39295;BME280;52361;52.100;5.248;2023-05-23T02:07:09;101902.0;;;16.27;100.0
39295;BME280;52361;52.100;5.248;2023-05-23T02:08:45;101900.0;;;16.61;100.0
39295;BME280;52361;52.100;5.248;2023-05-23T02:11:58;101905.0;;;16.43;100.0
39295;BME280;52361;52.100;5.248;2023-05-23T02:13:34;101905.0;;;16.5;100.0
39295;BME280;52361;52.100;5.248;2023-05-23T02:15:10;101906.0;;;16.52;100.0
39295;BME280;52361;52.100;5.248;2023-05-23T02:16:46;101907.0;;;16.48;100.0
39295;BME280;52361;52.100;5.248;2023-05-23T02:19:59;101903.0;;;16.62;100.0
39295;BME280;52361;52.100;5.248;2023-05-23T02:21:35;101902.0;;;16.36;100.0
39295;BME280;52361;52.100;5.248;2023-05-23T02:23:12;101905.0;;;16.43;100.0
39295;BME280;52361;52.100;5.248;2023-05-23T02:26:24;101905.0;;;16.54;100.0
39295;BME280;52361;52.100;5.248;2023-05-23T02:28:00;101908.0;;;16.59;100.0
39295;BME280;52361;52.100;5.248;2023-05-23T02:29:37;101910.0;;;16.64;100.0
39295;BME280;52361;52.100;5.248;2023-05-23T02:32:49;101911.0;;;16.62;100.0
39295;BME280;52361;52.100;5.248;2023-05-23T02:34:25;101913.0;;;16.54;100.0
39295;BME280;52361;52.100;5.248;2023-05-23T02:36:01;101912.0;;;16.61;100.0
39295;BME280;52361;52.100;5.248;2023-05-23T02:39:14;101917.0;;;16.61;100.0
39295;BME280;52361;52.100;5.248;2023-05-23T02:40:50;101923.0;;;16.59;100.0
39295;BME280;52361;52.100;5.248;2023-05-23T02:42:26;101928.0;;;16.64;100.0
39295;BME280;52361;52.100;5.248;2023-05-23T02:44:02;101927.0;;;16.57;100.0
39295;BME280;52361;52.100;5.248;2023-05-23T02:47:14;101928.0;;;16.25;100.0
39295;BME280;52361;52.100;5.248;2023-05-23T02:48:51;101932.0;;;16.45;100.0
39295;BME280;52361;52.100;5.248;2023-05-23T02:50:27;101936.0;;;16.55;100.0
39295;BME280;52361;52.100;5.248;2023-05-23T02:53:39;101935.0;;;16.68;100.0
39295;BME280;52361;52.100;5.248;2023-05-23T02:55:15;101935.0;;;16.63;100.0
39295;BME280;52361;52.100;5.248;2023-05-23T02:56:52;101932.0;;;16.71;100.0
39295;BME280;52361;52.100;5.248;2023-05-23T03:00:05;101936.0;;;16.68;100.0
39295;BME280;52361;52.100;5.248;2023-05-23T03:01:41;101939.0;;;16.28;100.0
39295;BME280;52361;52.100;5.248;2023-05-23T03:03:17;101938.0;;;16.48;100.0
39295;BME280;52361;52.100;5.248;2023-05-23T03:04:53;101943.0;;;16.48;100.0
39295;BME280;52361;52.100;5.248;2023-05-23T03:08:06;101943.0;;;16.61;100.0
39295;BME280;52361;52.100;5.248;2023-05-23T03:09:42;101939.0;;;16.56;100.0
39295;BME280;52361;52.100;5.248;2023-05-23T03:11:18;101938.0;;;16.55;100.0
39295;BME280;52361;52.100;5.248;2023-05-23T03:14:30;101934.0;;;16.2;100.0
39295;BME280;52361;52.100;5.248;2023-05-23T03:16:07;101940.0;;;16.45;100.0
39295;BME280;52361;52.100;5.248;2023-05-23T03:17:43;101937.0;;;16.5;100.0
39295;BME280;52361;52.100;5.248;2023-05-23T03:20:55;101938.0;;;16.5;100.0
39295;BME280;52361;52.100;5.248;2023-05-23T03:22:31;101935.0;;;16.41;100.0
39295;BME280;52361;52.100;5.248;2023-05-23T03:24:08;101938.0;;;16.46;100.0
39295;BME280;52361;52.100;5.248;2023-05-23T03:27:20;101944.0;;;16.48;100.0
39295;BME280;52361;52.100;5.248;2023-05-23T03:28:56;101942.0;;;16.25;100.0
39295;BME280;52361;52.100;5.248;2023-05-23T03:30:33;101939.0;;;16.43;100.0
39295;BME280;52361;52.100;5.248;2023-05-23T03:32:09;101944.0;;;16.5;100.0
39295;BME280;52361;52.100;5.248;2023-05-23T03:35:21;101945.0;;;16.45;100.0
39295;BME280;52361;52.100;5.248;2023-05-23T03:36:57;101946.0;;;16.32;100.0
39295;BME280;52361;52.100;5.248;2023-05-23T03:38:33;101948.0;;;16.34;100.0
39295;BME280;52361;52.100;5.248;2023-05-23T03:41:46;101952.0;;;16.25;100.0
39295;BME280;52361;52.100;5.248;2023-05-23T03:43:22;101948.0;;;16.31;100.0
39295;BME280;52361;52.100;5.248;2023-05-23T03:44:58;101947.0;;;16.29;100.0
39295;BME280;52361;52.100;5.248;2023-05-23T03:48:10;101951.0;;;16.2;100.0
39295;BME280;52361;52.100;5.248;2023-05-23T03:49:46;101953.0;;;16.25;100.0
39295;BME280;52361;52.100;5.248;2023-05-23T03:51:23;101957.0;;;16.36;100.0
39295;BME280;52361;52.100;5.248;2023-05-23T03:54:35;101960.0;;;16.23;100.0
39295;BME280;52361;52.100;5.248;2023-05-23T03:56:11;101955.0;;;16.2;100.0
39295;BME280;52361;52.100;5.248;2023-05-23T03:57:47;101963.0;;;16.13;100.0
39295;BME280;52361;52.100;5.248;2023-05-23T03:59:24;101955.0;;;15.87;100.0
39295;BME280;52361;52.100;5.248;2023-05-23T04:02:36;101964.0;;;15.94;100.0
39295;BME280;52361;52.100;5.248;2023-05-23T04:04:12;101956.0;;;15.95;100.0
39295;BME280;52361;52.100;5.248;2023-05-23T04:05:48;101966.0;;;16.07;100.0
39295;BME280;52361;52.100;5.248;2023-05-23T04:09:01;101973.0;;;16.07;100.0
39295;BME280;52361;52.100;5.248;2023-05-23T04:10:37;101970.0;;;15.99;100.0
39295;BME280;52361;52.100;5.248;2023-05-23T04:12:13;101980.0;;;15.76;100.0
39295;BME280;52361;52.100;5.248;2023-05-23T04:15:25;101980.0;;;15.98;100.0
39295;BME280;52361;52.100;5.248;2023-05-23T04:17:02;101980.0;;;15.84;100.0
39295;BME280;52361;52.100;5.248;2023-05-23T04:18:38;101978.0;;;16.12;100.0
39295;BME280;52361;52.100;5.248;2023-05-23T04:20:14;101981.0;;;16.21;100.0
39295;BME280;52361;52.100;5.248;2023-05-23T04:23:26;101989.0;;;15.94;100.0
39295;BME280;52361;52.100;5.248;2023-05-23T04:25:04;101992.0;;;16.04;100.0
39295;BME280;52361;52.100;5.248;2023-05-23T04:26:41;101988.0;;;16.05;100.0
39295;BME280;52361;52.100;5.248;2023-05-23T04:29:53;101995.0;;;15.97;100.0
39295;BME280;52361;52.100;5.248;2023-05-23T04:31:29;101996.0;;;15.93;100.0
39295;BME280;52361;52.100;5.248;2023-05-23T04:33:05;102005.0;;;15.96;100.0
39295;BME280;52361;52.100;5.248;2023-05-23T04:36:18;102003.0;;;15.88;100.0
39295;BME280;52361;52.100;5.248;2023-05-23T04:37:54;102000.0;;;15.69;100.0
39295;BME280;52361;52.100;5.248;2023-05-23T04:39:30;102002.0;;;15.53;100.0
39295;BME280;52361;52.100;5.248;2023-05-23T04:42:42;101998.0;;;15.8;100.0
39295;BME280;52361;52.100;5.248;2023-05-23T04:44:19;102013.0;;;15.98;100.0
39295;BME280;52361;52.100;5.248;2023-05-23T04:45:55;102000.0;;;15.8;100.0
39295;BME280;52361;52.100;5.248;2023-05-23T04:47:31;102005.0;;;15.91;100.0
39295;BME280;52361;52.100;5.248;2023-05-23T04:50:44;102008.0;;;15.56;100.0
39295;BME280;52361;52.100;5.248;2023-05-23T04:52:21;102005.0;;;15.68;100.0
39295;BME280;52361;52.100;5.248;2023-05-23T04:53:57;102012.0;;;15.76;100.0
39295;BME280;52361;52.100;5.248;2023-05-23T04:57:09;102019.0;;;15.66;100.0
39295;BME280;52361;52.100;5.248;2023-05-23T04:58:45;102022.0;;;15.48;100.0
39295;BME280;52361;52.100;5.248;2023-05-23T05:00:22;102031.0;;;15.43;100.0
39295;BME280;52361;52.100;5.248;2023-05-23T05:03:34;102030.0;;;15.49;100.0
39295;BME280;52361;52.100;5.248;2023-05-23T05:05:10;102038.0;;;15.74;100.0
39295;BME280;52361;52.100;5.248;2023-05-23T05:06:46;102045.0;;;15.65;100.0
39295;BME280;52361;52.100;5.248;2023-05-23T05:08:23;102043.0;;;15.65;100.0
39295;BME280;52361;52.100;5.248;2023-05-23T05:11:35;102050.0;;;15.58;100.0
39295;BME280;52361;52.100;5.248;2023-05-23T05:13:11;102055.0;;;15.72;100.0
39295;BME280;52361;52.100;5.248;2023-05-23T05:14:47;102055.0;;;15.65;100.0
39295;BME280;52361;52.100;5.248;2023-05-23T05:18:00;102057.0;;;15.71;100.0
39295;BME280;52361;52.100;5.248;2023-05-23T05:19:36;102064.0;;;15.56;98.82
39295;BME280;52361;52.100;5.248;2023-05-23T05:21:12;102065.0;;;15.16;99.75
39295;BME280;52361;52.100;5.248;2023-05-23T05:24:30;102069.0;;;14.85;100.0
39295;BME280;52361;52.100;5.248;2023-05-23T05:26:06;102075.0;;;15.08;100.0
39295;BME280;52361;52.100;5.248;2023-05-23T05:27:43;102076.0;;;15.33;100.0
39295;BME280;52361;52.100;5.248;2023-05-23T05:29:19;102081.0;;;15.34;99.62
39295;BME280;52361;52.100;5.248;2023-05-23T05:32:31;102089.0;;;15.5;97.03
39295;BME280;52361;52.100;5.248;2023-05-23T05:34:07;102086.0;;;15.07;96.73
39295;BME280;52361;52.100;5.248;2023-05-23T05:35:44;102084.0;;;15.13;95.66
39295;BME280;52361;52.100;5.248;2023-05-23T05:38:56;102082.0;;;15.24;95.11
39295;BME280;52361;52.100;5.248;2023-05-23T05:40:32;102087.0;;;15.19;95.48
39295;BME280;52361;52.100;5.248;2023-05-23T05:42:09;102086.0;;;15.43;95.2
39295;BME280;52361;52.100;5.248;2023-05-23T05:45:22;102082.0;;;15.31;93.91
39295;BME280;52361;52.100;5.248;2023-05-23T05:46:58;102090.0;;;15.22;94.3
39295;BME280;52361;52.100;5.248;2023-05-23T05:48:34;102089.0;;;15.36;94.3
39295;BME280;52361;52.100;5.248;2023-05-23T05:50:11;102098.0;;;15.35;93.54
39295;BME280;52361;52.100;5.248;2023-05-23T05:53:23;102105.0;;;15.42;93.21
39295;BME280;52361;52.100;5.248;2023-05-23T05:54:59;102102.0;;;15.31;92.49
39295;BME280;52361;52.100;5.248;2023-05-23T05:56:35;102106.0;;;14.99;91.09
39295;BME280;52361;52.100;5.248;2023-05-23T05:59:47;102117.0;;;15.43;90.22
39295;BME280;52361;52.100;5.248;2023-05-23T06:01:23;102117.0;;;15.21;91.58
39295;BME280;52361;52.100;5.248;2023-05-23T06:03:00;102117.0;;;15.31;88.57
39295;BME280;52361;52.100;5.248;2023-05-23T06:06:12;102123.0;;;15.27;88.29
39295;BME280;52361;52.100;5.248;2023-05-23T06:07:49;102119.0;;;15.47;88.62
39295;BME280;52361;52.100;5.248;2023-05-23T06:09:24;102119.0;;;15.38;87.82
39295;BME280;52361;52.100;5.248;2023-05-23T06:12:37;102130.0;;;15.57;87.32
39295;BME280;52361;52.100;5.248;2023-05-23T06:14:13;102127.0;;;15.13;87.67
39295;BME280;52361;52.100;5.248;2023-05-23T06:15:49;102128.0;;;15.2;88.52
39295;BME280;52361;52.100;5.248;2023-05-23T06:17:26;102133.0;;;15.25;87.78
39295;BME280;52361;52.100;5.248;2023-05-23T06:20:39;102130.0;;;15.06;88.93
39295;BME280;52361;52.100;5.248;2023-05-23T06:22:15;102127.0;;;15.42;88.37
39295;BME280;52361;52.100;5.248;2023-05-23T06:23:51;102130.0;;;15.47;87.05
39295;BME280;52361;52.100;5.248;2023-05-23T06:27:04;102124.0;;;15.22;88.75
39295;BME280;52361;52.100;5.248;2023-05-23T06:28:40;102130.0;;;15.19;90.53
39295;BME280;52361;52.100;5.248;2023-05-23T06:30:16;102131.0;;;15.35;88.36
39295;BME280;52361;52.100;5.248;2023-05-23T06:33:29;102134.0;;;15.2;88.24
39295;BME280;52361;52.100;5.248;2023-05-23T06:35:06;102132.0;;;15.11;90.45
39295;BME280;52361;52.100;5.248;2023-05-23T06:36:42;102126.0;;;15.22;89.62
39295;BME280;52361;52.100;5.248;2023-05-23T06:38:19;102124.0;;;15.25;89.92
39295;BME280;52361;52.100;5.248;2023-05-23T06:41:31;102124.0;;;15.3;89.58
39295;BME280;52361;52.100;5.248;2023-05-23T06:43:07;102123.0;;;15.2;90.41
39295;BME280;52361;52.100;5.248;2023-05-23T06:44:44;102126.0;;;15.4;89.21
39295;BME280;52361;52.100;5.248;2023-05-23T06:47:56;102123.0;;;15.45;90.55
39295;BME280;52361;52.100;5.248;2023-05-23T06:49:32;102131.0;;;15.4;89.95
39295;BME280;52361;52.100;5.248;2023-05-23T06:51:08;102132.0;;;15.44;90.66
39295;BME280;52361;52.100;5.248;2023-05-23T06:54:21;102136.0;;;15.32;92.23
39295;BME280;52361;52.100;5.248;2023-05-23T06:55:57;102135.0;;;15.21;93.49
39295;BME280;52361;52.100;5.248;2023-05-23T06:57:33;102137.0;;;15.47;93.66
39295;BME280;52361;52.100;5.248;2023-05-23T07:00:45;102136.0;;;15.36;94.39
39295;BME280;52361;52.100;5.248;2023-05-23T07:02:22;102141.0;;;15.39;93.86
39295;BME280;52361;52.100;5.248;2023-05-23T07:03:58;102142.0;;;14.86;96.26
39295;BME280;52361;52.100;5.248;2023-05-23T07:05:33;102143.0;;;15.15;96.39
39295;BME280;52361;52.100;5.248;2023-05-23T07:08:45;102145.0;;;15.19;97.05
39295;BME280;52361;52.100;5.248;2023-05-23T07:10:22;102147.0;;;15.12;98.66
39295;BME280;52361;52.100;5.248;2023-05-23T07:11:58;102148.0;;;15.32;98.61
39295;BME280;52361;52.100;5.248;2023-05-23T07:15:11;102152.0;;;15.33;98.75
39295;BME280;52361;52.100;5.248;2023-05-23T07:16:46;102156.0;;;15.39;98.27
39295;BME280;52361;52.100;5.248;2023-05-23T07:18:23;102162.0;;;15.43;97.91
39295;BME280;52361;52.100;5.248;2023-05-23T07:21:36;102165.0;;;15.34;99.18
39295;BME280;52361;52.100;5.248;2023-05-23T07:23:12;102167.0;;;15.54;98.72
39295;BME280;52361;52.100;5.248;2023-05-23T07:24:48;102165.0;;;15.54;97.07
39295;BME280;52361;52.100;5.248;2023-05-23T07:26:25;102158.0;;;15.55;96.39
39295;BME280;52361;52.100;5.248;2023-05-23T07:29:37;102163.0;;;15.36;95.08
39295;BME280;52361;52.100;5.248;2023-05-23T07:31:13;102170.0;;;14.93;95.37
39295;BME280;52361;52.100;5.248;2023-05-23T07:32:49;102166.0;;;15.36;94.31
39295;BME280;52361;52.100;5.248;2023-05-23T07:36:02;102174.0;;;15.41;92.88
39295;BME280;52361;52.100;5.248;2023-05-23T07:37:38;102177.0;;;15.31;89.62
39295;BME280;52361;52.100;5.248;2023-05-23T07:39:14;102171.0;;;15.42;87.83
39295;BME280;52361;52.100;5.248;2023-05-23T07:42:26;102172.0;;;15.35;86.21
39295;BME280;52361;52.100;5.248;2023-05-23T07:44:03;102171.0;;;15.45;85.54
39295;BME280;52361;52.100;5.248;2023-05-23T07:45:39;102172.0;;;15.64;84.51
39295;BME280;52361;52.100;5.248;2023-05-23T07:48:51;102172.0;;;15.62;83.34
39295;BME280;52361;52.100;5.248;2023-05-23T07:50:27;102172.0;;;15.59;82.54
39295;BME280;52361;52.100;5.248;2023-05-23T07:52:04;102173.0;;;15.68;83.55
39295;BME280;52361;52.100;5.248;2023-05-23T07:53:40;102180.0;;;15.55;80.42
39295;BME280;52361;52.100;5.248;2023-05-23T07:56:52;102181.0;;;15.41;79.69
39295;BME280;52361;52.100;5.248;2023-05-23T07:58:29;102177.0;;;15.58;79.49
39295;BME280;52361;52.100;5.248;2023-05-23T08:00:06;102185.0;;;15.71;79.64
39295;BME280;52361;52.100;5.248;2023-05-23T08:03:18;102176.0;;;15.74;79.42
39295;BME280;52361;52.100;5.248;2023-05-23T08:04:54;102184.0;;;15.97;79.38
39295;BME280;52361;52.100;5.248;2023-05-23T08:06:30;102191.0;;;16.09;79.41
39295;BME280;52361;52.100;5.248;2023-05-23T08:09:43;102186.0;;;15.75;78.33
39295;BME280;52361;52.100;5.248;2023-05-23T08:11:19;102194.0;;;15.98;79.17
39295;BME280;52361;52.100;5.248;2023-05-23T08:12:55;102193.0;;;15.96;77.22
39295;BME280;52361;52.100;5.248;2023-05-23T08:14:31;102194.0;;;16.5;77.89
39295;BME280;52361;52.100;5.248;2023-05-23T08:17:44;102196.0;;;16.34;74.3
39295;BME280;52361;52.100;5.248;2023-05-23T08:19:20;102190.0;;;16.36;72.31
39295;BME280;52361;52.100;5.248;2023-05-23T08:20:56;102190.0;;;16.5;72.53
39295;BME280;52361;52.100;5.248;2023-05-23T08:24:08;102189.0;;;16.52;70.66
39295;BME280;52361;52.100;5.248;2023-05-23T08:25:44;102191.0;;;16.88;73.34
39295;BME280;52361;52.100;5.248;2023-05-23T08:27:21;102191.0;;;16.68;71.08
39295;BME280;52361;52.100;5.248;2023-05-23T08:30:33;102192.0;;;16.82;70.61
39295;BME280;52361;52.100;5.248;2023-05-23T08:32:09;102194.0;;;16.96;69.89
39295;BME280;52361;52.100;5.248;2023-05-23T08:33:45;102198.0;;;17.06;70.09
39295;BME280;52361;52.100;5.248;2023-05-23T08:38:34;102209.0;;;17.03;69.41
39295;BME280;52361;52.100;5.248;2023-05-23T08:40:12;102215.0;;;17.16;68.8
39295;BME280;52361;52.100;5.248;2023-05-23T08:41:52;102210.0;;;17.46;69.22
39295;BME280;52361;52.100;5.248;2023-05-23T08:45:06;102219.0;;;17.11;66.45
39295;BME280;52361;52.100;5.248;2023-05-23T08:46:44;102223.0;;;17.12;68.61
39295;BME280;52361;52.100;5.248;2023-05-23T08:48:21;102214.0;;;16.7;68.05
39295;BME280;52361;52.100;5.248;2023-05-23T08:51:37;102217.0;;;17.12;67.94
39295;BME280;52361;52.100;5.248;2023-05-23T08:53:17;102213.0;;;17.52;65.7
39295;BME280;52361;52.100;5.248;2023-05-23T08:54:59;102218.0;;;17.87;66.22
39295;BME280;52361;52.100;5.248;2023-05-23T08:56:36;102216.0;;;17.45;64.77
39295;BME280;52361;52.100;5.248;2023-05-23T08:59:50;102230.0;;;17.32;65.1
39295;BME280;52361;52.100;5.248;2023-05-23T09:01:27;102221.0;;;17.52;64.42
39295;BME280;52361;52.100;5.248;2023-05-23T09:03:05;102221.0;;;17.52;64.59
39295;BME280;52361;52.100;5.248;2023-05-23T09:06:19;102232.0;;;17.7;64.33
39295;BME280;52361;52.100;5.248;2023-05-23T09:07:55;102227.0;;;18.11;66.5
39295;BME280;52361;52.100;5.248;2023-05-23T09:09:32;102228.0;;;17.93;62.2
39295;BME280;52361;52.100;5.248;2023-05-23T09:11:08;102232.0;;;18.16;62.75
39295;BME280;52361;52.100;5.248;2023-05-23T09:16:00;102232.0;;;17.91;63.38
39295;BME280;52361;52.100;5.248;2023-05-23T09:17:38;102238.0;;;17.82;61.4
39295;BME280;52361;52.100;5.248;2023-05-23T09:20:50;102242.0;;;17.87;63.05
39295;BME280;52361;52.100;5.248;2023-05-23T09:22:27;102242.0;;;18.11;63.33
39295;BME280;52361;52.100;5.248;2023-05-23T09:24:04;102248.0;;;18.09;63.16
39295;BME280;52361;52.100;5.248;2023-05-23T09:25:45;102248.0;;;17.93;62.26
39295;BME280;52361;52.100;5.248;2023-05-23T09:28:59;102247.0;;;18.0;62.68
39295;BME280;52361;52.100;5.248;2023-05-23T09:30:38;102255.0;;;17.91;61.87
39295;BME280;52361;52.100;5.248;2023-05-23T09:32:15;102252.0;;;17.84;64.12
39295;BME280;52361;52.100;5.248;2023-05-23T09:35:28;102244.0;;;17.84;62.28
39295;BME280;52361;52.100;5.248;2023-05-23T09:37:04;102249.0;;;17.84;61.52
39295;BME280;52361;52.100;5.248;2023-05-23T09:38:42;102243.0;;;17.52;61.42
39295;BME280;52361;52.100;5.248;2023-05-23T09:40:20;102245.0;;;17.7;63.07
39295;BME280;52361;52.100;5.248;2023-05-23T09:43:33;102241.0;;;17.93;63.72
39295;BME280;52361;52.100;5.248;2023-05-23T09:45:10;102249.0;;;18.43;62.38
39295;BME280;52361;52.100;5.248;2023-05-23T09:46:49;102257.0;;;19.0;64.34
39295;BME280;52361;52.100;5.248;2023-05-23T09:50:05;102252.0;;;19.41;63.42
39295;BME280;52361;52.100;5.248;2023-05-23T09:51:41;102258.0;;;19.52;59.9
39295;BME280;52361;52.100;5.248;2023-05-23T09:53:17;102257.0;;;19.07;57.93
39295;BME280;52361;52.100;5.248;2023-05-23T09:56:30;102258.0;;;18.79;57.5
39295;BME280;52361;52.100;5.248;2023-05-23T09:58:07;102258.0;;;18.7;59.35
39295;BME280;52361;52.100;5.248;2023-05-23T09:59:51;102259.0;;;19.04;59.31
39295;BME280;52361;52.100;5.248;2023-05-23T10:01:30;102255.0;;;19.5;59.64
39295;BME280;52361;52.100;5.248;2023-05-23T10:04:46;102259.0;;;19.43;54.98
39295;BME280;52361;52.100;5.248;2023-05-23T10:06:25;102255.0;;;19.52;57.8
39295;BME280;52361;52.100;5.248;2023-05-23T10:08:07;102260.0;;;19.5;55.31
39295;BME280;52361;52.100;5.248;2023-05-23T10:09:48;102260.0;;;19.45;54.06
39295;BME280;52361;52.100;5.248;2023-05-23T10:15:08;102259.0;;;18.79;55.66
39295;BME280;52361;52.100;5.248;2023-05-23T10:16:54;102260.0;;;17.86;60.44
39295;BME280;52361;52.100;5.248;2023-05-23T10:18:40;102266.0;;;18.14;61.74
39295;BME280;52361;52.100;5.248;2023-05-23T10:20:20;102268.0;;;18.39;60.56
39295;BME280;52361;52.100;5.248;2023-05-23T10:23:41;102263.0;;;18.63;59.05
39295;BME280;52361;52.100;5.248;2023-05-23T10:25:18;102269.0;;;18.48;56.52
39295;BME280;52361;52.100;5.248;2023-05-23T10:26:54;102271.0;;;18.0;58.3
39295;BME280;52361;52.100;5.248;2023-05-23T10:28:30;102270.0;;;18.27;59.02
39295;BME280;52361;52.100;5.248;2023-05-23T10:31:45;102276.0;;;18.11;58.58
39295;BME280;52361;52.100;5.248;2023-05-23T10:33:22;102280.0;;;18.09;59.75
39295;BME280;52361;52.100;5.248;2023-05-23T10:35:03;102278.0;;;18.37;59.44
39295;BME280;52361;52.100;5.248;2023-05-23T10:36:54;102280.0;;;18.18;59.61
39295;BME280;52361;52.100;5.248;2023-05-23T10:40:21;102278.0;;;18.0;58.63
39295;BME280;52361;52.100;5.248;2023-05-23T10:42:08;102285.0;;;18.13;58.91
39295;BME280;52361;52.100;5.248;2023-05-23T10:43:50;102283.0;;;18.38;59.96
39295;BME280;52361;52.100;5.248;2023-05-23T10:45:38;102285.0;;;17.93;59.75
39295;BME280;52361;52.100;5.248;2023-05-23T10:47:25;102287.0;;;17.5;60.76
39295;BME280;52361;52.100;5.248;2023-05-23T10:52:15;102278.0;;;18.02;59.85
39295;BME280;52361;52.100;5.248;2023-05-23T10:53:53;102289.0;;;17.84;60.52
39295;BME280;52361;52.100;5.248;2023-05-23T10:57:09;102290.0;;;17.77;59.38
39295;BME280;52361;52.100;5.248;2023-05-23T10:58:45;102289.0;;;18.02;64.8
39295;BME280;52361;52.100;5.248;2023-05-23T11:00:22;102285.0;;;18.16;60.14
39295;BME280;52361;52.100;5.248;2023-05-23T11:02:00;102295.0;;;18.22;59.35
39295;BME280;52361;52.100;5.248;2023-05-23T11:05:27;102291.0;;;18.38;62.02
39295;BME280;52361;52.100;5.248;2023-05-23T11:07:04;102292.0;;;18.59;59.91
39295;BME280;52361;52.100;5.248;2023-05-23T11:08:40;102287.0;;;18.34;59.5
39295;BME280;52361;52.100;5.248;2023-05-23T11:10:17;102283.0;;;18.23;59.21
39295;BME280;52361;52.100;5.248;2023-05-23T11:14:03;102292.0;;;18.21;63.18
39295;BME280;52361;52.100;5.248;2023-05-23T11:15:41;102285.0;;;18.2;59.7